Time;durP1;ratioP1;P1;durP2;ratioP2;P2;SDS_P1;SDS_P2;PMS_P1;PMS_P2;Temp;Humidity;BMP_temperature;BMP_pressure;BME280_temperature;BME280_humidity;BME280_pressure;Samples;Min_cycle;Max_cycle;Signal;HPM_P1;HPM_P2
2022/04/13 00:00:16;;;;;;;4.23;2.83;;;17.90;94.60;;;;;;4955153;28;21031;-71
2022/04/13 00:02:44;;;;;;;3.90;2.57;;;17.90;94.60;;;;;;4953814;28;21150;-71
2022/04/13 00:05:12;;;;;;;4.10;3.20;;;17.90;94.70;;;;;;4954120;29;20576;-71
2022/04/13 00:07:41;;;;;;;3.40;2.20;;;17.80;94.60;;;;;;4955276;29;20473;-71
2022/04/13 00:10:10;;;;;;;5.83;2.97;;;17.80;94.70;;;;;;4955079;29;20453;-71
2022/04/13 00:12:36;;;;;;;3.40;3.00;;;17.80;94.70;;;;;;4954851;28;20460;-71
2022/04/13 00:15:06;;;;;;;5.13;3.13;;;17.80;94.70;;;;;;4938208;29;20426;-71
2022/04/13 00:17:37;;;;;;;4.60;2.93;;;17.80;94.80;;;;;;4954023;29;20497;-71
2022/04/13 00:20:06;;;;;;;5.93;3.00;;;17.80;94.80;;;;;;4953842;28;20553;-71
2022/04/13 00:22:34;;;;;;;6.73;3.40;;;17.80;94.80;;;;;;4936873;29;20445;-71
2022/04/13 00:25:00;;;;;;;3.97;2.77;;;17.80;94.80;;;;;;4921651;29;20477;-71
2022/04/13 00:27:28;;;;;;;6.50;3.50;;;17.70;94.80;;;;;;4953602;29;20868;-71
2022/04/13 00:29:55;;;;;;;4.70;3.10;;;17.70;94.80;;;;;;4953699;29;20486;-71
2022/04/13 00:32:21;;;;;;;5.30;3.53;;;17.70;94.80;;;;;;4953882;28;20464;-72
2022/04/13 00:34:46;;;;;;;6.17;3.50;;;17.70;94.90;;;;;;4937614;29;20438;-72
2022/04/13 00:37:12;;;;;;;6.93;3.93;;;17.70;94.90;;;;;;4953679;29;20496;-72
2022/04/13 00:39:39;;;;;;;7.43;3.10;;;17.70;94.90;;;;;;4953821;28;20221;-71
2022/04/13 00:42:06;;;;;;;5.37;4.10;;;17.70;95.00;;;;;;4937355;29;20939;-71
2022/04/13 00:44:35;;;;;;;5.07;3.73;;;17.70;95.00;;;;;;4953295;29;20942;-71
2022/04/13 00:47:07;;;;;;;4.30;3.40;;;17.70;95.00;;;;;;4953385;29;20537;-71
2022/04/13 00:49:37;;;;;;;5.70;3.73;;;17.60;95.00;;;;;;4937565;29;20433;-71
2022/04/13 00:52:07;;;;;;;5.20;3.77;;;17.60;95.00;;;;;;4954089;29;20451;-71
2022/04/13 00:54:34;;;;;;;4.67;3.37;;;17.60;95.10;;;;;;4937260;29;20445;-71
2022/04/13 00:57:09;;;;;;;4.97;3.50;;;17.60;95.00;;;;;;4954209;28;20454;-71
2022/04/13 00:59:39;;;;;;;4.70;2.93;;;17.60;95.10;;;;;;4953003;29;20492;-71
2022/04/13 01:02:09;;;;;;;5.90;3.50;;;17.60;95.10;;;;;;4953188;29;20802;-71
2022/04/13 01:04:40;;;;;;;4.13;3.77;;;17.60;95.20;;;;;;4952500;28;20573;-71
2022/04/13 01:07:09;;;;;;;5.20;3.30;;;17.60;95.50;;;;;;4952926;28;20458;-71
2022/04/13 01:09:37;;;;;;;5.17;3.50;;;17.50;95.10;;;;;;4952924;29;20545;-72
2022/04/13 01:12:06;;;;;;;5.17;3.53;;;17.50;95.10;;;;;;4953052;29;20462;-71
2022/04/13 01:14:32;;;;;;;4.90;3.43;;;17.50;95.20;;;;;;4936056;29;20983;-71
2022/04/13 01:16:59;;;;;;;4.70;3.30;;;17.50;95.20;;;;;;4953621;28;20460;-72
2022/04/13 01:19:27;;;;;;;4.57;3.40;;;17.50;95.20;;;;;;4952577;29;20475;-71
2022/04/13 01:21:59;;;;;;;5.77;3.50;;;17.50;95.20;;;;;;4953991;28;20457;-72
2022/04/13 01:24:26;;;;;;;3.20;2.90;;;17.50;95.20;;;;;;4953194;28;20564;-71
2022/04/13 01:26:56;;;;;;;4.53;3.40;;;17.50;95.20;;;;;;4952783;29;20461;-71
2022/04/13 01:29:24;;;;;;;3.60;3.03;;;17.50;95.30;;;;;;4936961;29;20434;-71
2022/04/13 01:31:54;;;;;;;3.80;3.10;;;17.40;95.20;;;;;;4953573;28;20440;-71
2022/04/13 01:34:20;;;;;;;4.90;3.10;;;17.40;95.20;;;;;;4953858;29;20202;-71
2022/04/13 01:36:46;;;;;;;4.40;3.30;;;17.40;95.30;;;;;;4936476;29;20493;-72
2022/04/13 01:39:12;;;;;;;6.27;3.93;;;17.40;95.30;;;;;;4936344;29;20491;-72
2022/04/13 01:41:38;;;;;;;4.93;3.50;;;17.40;95.30;;;;;;4936611;29;20449;-71
2022/04/13 01:44:09;;;;;;;5.17;3.70;;;17.40;95.30;;;;;;4953308;28;20841;-72
2022/04/13 01:46:39;;;;;;;5.93;3.63;;;17.40;95.30;;;;;;4951998;28;20473;-71
2022/04/13 01:49:07;;;;;;;4.43;3.70;;;17.40;95.30;;;;;;4952842;29;20433;-71
2022/04/13 01:51:36;;;;;;;4.07;3.37;;;17.30;95.30;;;;;;4952286;29;20426;-71
2022/04/13 01:54:02;;;;;;;6.93;3.50;;;17.30;95.30;;;;;;4953691;29;20403;-71
2022/04/13 01:56:30;;;;;;;4.47;3.03;;;17.30;95.40;;;;;;4952253;29;20493;-71
2022/04/13 01:59:01;;;;;;;4.23;3.63;;;17.30;95.40;;;;;;4952036;29;20537;-71
2022/04/13 02:01:27;;;;;;;3.83;3.23;;;17.30;95.80;;;;;;4952180;29;20919;-71
2022/04/13 02:03:56;;;;;;;5.30;3.20;;;17.30;95.40;;;;;;4936626;29;20443;-72
2022/04/13 02:06:21;;;;;;;3.70;2.90;;;17.20;95.40;;;;;;4953138;29;20477;-71
2022/04/13 02:08:52;;;;;;;4.47;3.50;;;17.30;95.50;;;;;;4953657;28;20426;-71
2022/04/13 02:11:21;;;;;;;4.57;3.73;;;17.20;95.50;;;;;;4935808;29;20436;-71
2022/04/13 02:13:47;;;;;;;3.97;3.43;;;17.20;95.50;;;;;;4953394;28;20401;-71
2022/04/13 02:16:17;;;;;;;4.80;3.47;;;17.20;95.50;;;;;;4952249;28;20417;-72
2022/04/13 02:18:46;;;;;;;3.30;3.00;;;17.20;95.50;;;;;;4964633;28;20445;-71
2022/04/13 02:21:15;;;;;;;6.30;3.40;;;17.20;95.50;;;;;;4971401;28;20417;-71
2022/04/13 02:23:46;;;;;;;5.10;3.57;;;17.20;95.50;;;;;;4965264;28;20429;-71
2022/04/13 02:26:19;;;;;;;4.97;3.93;;;17.20;95.60;;;;;;4954011;28;20225;-71
2022/04/13 02:28:46;;;;;;;4.60;3.40;;;17.20;95.60;;;;;;4955595;29;20430;-71
2022/04/13 02:31:17;;;;;;;5.10;3.57;;;17.10;95.60;;;;;;4955671;29;21010;-71
2022/04/13 02:33:43;;;;;;;4.83;3.80;;;17.10;95.60;;;;;;4939495;29;20870;-72
2022/04/13 02:36:12;;;;;;;6.00;3.37;;;17.10;95.60;;;;;;4956279;28;20478;-71
2022/04/13 02:38:41;;;;;;;4.20;3.50;;;17.10;95.60;;;;;;4967925;28;21073;-71
2022/04/13 02:41:10;;;;;;;5.03;3.87;;;17.10;95.60;;;;;;4956953;28;20537;-71
2022/04/13 02:43:41;;;;;;;6.80;3.00;;;17.10;96.00;;;;;;4955584;29;20416;-71
2022/04/13 02:46:10;;;;;;;5.90;3.93;;;17.10;95.60;;;;;;4939624;29;20462;-71
2022/04/13 02:48:38;;;;;;;4.33;3.20;;;17.00;95.60;;;;;;4956371;28;20430;-71
2022/04/13 02:51:04;;;;;;;4.83;3.70;;;17.00;95.60;;;;;;4956359;28;20426;-71
2022/04/13 02:53:31;;;;;;;3.57;3.27;;;17.00;95.70;;;;;;4956458;28;20421;-71
2022/04/13 02:55:58;;;;;;;4.30;3.03;;;17.00;95.70;;;;;;4956827;28;20450;-71
2022/04/13 02:58:24;;;;;;;4.67;3.40;;;17.00;95.70;;;;;;4956198;28;20460;-71
2022/04/13 03:00:54;;;;;;;4.33;3.93;;;17.00;95.70;;;;;;4955390;28;20437;-71
2022/04/13 03:03:21;;;;;;;5.07;3.90;;;16.90;95.60;;;;;;4955233;29;20475;-71
2022/04/13 03:05:47;;;;;;;3.70;3.10;;;17.00;95.70;;;;;;4956181;29;20479;-71
2022/04/13 03:08:13;;;;;;;3.33;2.77;;;16.90;95.70;;;;;;4939379;29;20434;-71
2022/04/13 03:10:39;;;;;;;4.40;3.30;;;16.90;95.70;;;;;;4955130;29;20182;-72
2022/04/13 03:13:10;;;;;;;5.17;3.50;;;16.90;95.70;;;;;;4938889;29;20459;-71
2022/04/13 03:15:36;;;;;;;4.13;3.53;;;16.90;95.70;;;;;;4955216;28;20437;-72
2022/04/13 03:18:07;;;;;;;4.10;3.20;;;16.90;95.80;;;;;;4954983;29;20445;-71
2022/04/13 03:20:35;;;;;;;4.67;2.90;;;16.90;95.80;;;;;;4954568;29;20520;-71
2022/04/13 03:23:05;;;;;;;5.93;3.20;;;16.90;95.80;;;;;;4955132;29;20836;-71
2022/04/13 03:25:33;;;;;;;5.80;3.40;;;16.80;95.70;;;;;;4955908;28;20468;-71
2022/04/13 03:28:01;;;;;;;4.33;3.80;;;16.80;95.80;;;;;;4956232;28;20468;-71
2022/04/13 03:30:27;;;;;;;6.63;3.00;;;16.80;95.80;;;;;;4954519;29;20442;-71
2022/04/13 03:32:53;;;;;;;4.03;2.83;;;16.80;95.80;;;;;;4954598;29;20511;-71
2022/04/13 03:35:22;;;;;;;3.83;2.93;;;16.80;95.90;;;;;;4954616;29;20421;-72
2022/04/13 03:37:48;;;;;;;4.17;3.43;;;16.80;95.80;;;;;;4955158;28;20454;-71
2022/04/13 03:40:19;;;;;;;3.73;3.33;;;16.80;96.20;;;;;;4938726;29;20448;-71
2022/04/13 03:42:45;;;;;;;5.70;3.40;;;16.80;95.90;;;;;;4954134;29;20433;-71
2022/04/13 03:45:14;;;;;;;5.47;3.20;;;16.80;95.90;;;;;;4955328;28;20565;-71
2022/04/13 03:47:43;;;;;;;3.57;3.27;;;16.80;95.90;;;;;;4954711;29;20441;-71
2022/04/13 03:50:11;;;;;;;3.60;3.13;;;16.70;95.90;;;;;;4954214;29;20470;-71
2022/04/13 03:52:38;;;;;;;6.50;3.87;;;16.70;95.90;;;;;;4955523;28;20452;-71
2022/04/13 03:55:10;;;;;;;4.30;3.27;;;16.70;95.90;;;;;;4953681;29;20418;-71
2022/04/13 03:57:39;;;;;;;4.80;3.20;;;16.70;95.90;;;;;;4954036;29;21255;-71
2022/04/13 04:00:09;;;;;;;5.00;3.17;;;16.70;95.90;;;;;;4954040;29;20437;-71
2022/04/13 04:02:41;;;;;;;4.57;3.00;;;16.60;95.90;;;;;;4935356;29;20452;-71
2022/04/13 04:05:08;;;;;;;4.60;3.67;;;16.60;95.90;;;;;;4934894;29;20477;-71
2022/04/13 04:07:36;;;;;;;4.63;3.13;;;16.60;95.90;;;;;;4950918;29;20553;-71
2022/04/13 04:10:04;;;;;;;5.00;3.27;;;16.60;95.90;;;;;;4948910;28;20437;-71
2022/04/13 04:12:40;;;;;;;5.17;3.40;;;16.60;95.90;;;;;;4953677;29;21018;-71
2022/04/13 04:15:09;;;;;;;4.60;3.13;;;16.60;96.00;;;;;;4953990;29;20407;-71
2022/04/13 04:17:39;;;;;;;5.57;3.50;;;16.60;96.00;;;;;;4953879;29;20468;-71
2022/04/13 04:20:07;;;;;;;4.30;3.30;;;16.60;96.00;;;;;;4938474;29;20422;-71
2022/04/13 04:22:35;;;;;;;4.77;3.20;;;16.60;96.00;;;;;;4954871;28;20461;-71
2022/04/13 04:25:03;;;;;;;3.50;2.87;;;16.60;96.00;;;;;;4954371;28;20980;-71
2022/04/13 04:27:29;;;;;;;4.40;3.40;;;16.50;96.00;;;;;;4953450;29;20534;-71
2022/04/13 04:29:55;;;;;;;5.80;3.70;;;16.50;96.00;;;;;;4955206;28;20863;-71
2022/04/13 04:32:26;;;;;;;5.07;3.40;;;16.50;96.00;;;;;;4953623;29;20453;-71
2022/04/13 04:34:54;;;;;;;4.17;3.23;;;16.50;96.00;;;;;;4954890;28;20917;-71
2022/04/13 04:37:23;;;;;;;4.60;3.10;;;16.50;96.00;;;;;;4954378;28;20490;-71
2022/04/13 04:39:49;;;;;;;4.17;3.07;;;16.50;96.10;;;;;;4954633;28;20923;-71
2022/04/13 04:42:17;;;;;;;5.30;2.80;;;16.50;96.10;;;;;;4954568;28;20453;-72
2022/04/13 04:44:44;;;;;;;3.57;2.97;;;16.50;96.10;;;;;;4954023;29;20484;-72
2022/04/13 04:47:09;;;;;;;5.00;3.10;;;16.40;96.10;;;;;;4954420;28;20481;-71
2022/04/13 04:49:36;;;;;;;4.30;3.40;;;16.40;96.10;;;;;;4953099;28;20449;-71
2022/04/13 04:52:06;;;;;;;4.73;3.33;;;16.40;96.10;;;;;;4953286;28;20488;-72
2022/04/13 04:54:37;;;;;;;6.50;3.50;;;16.40;96.10;;;;;;4953513;28;20496;-72
2022/04/13 04:57:08;;;;;;;5.63;3.60;;;16.40;96.10;;;;;;4953486;28;20465;-72
2022/04/13 04:59:36;;;;;;;6.97;4.33;;;16.40;96.10;;;;;;4937543;29;20445;-72
2022/04/13 05:02:07;;;;;;;4.43;3.10;;;16.40;96.20;;;;;;4953187;29;20836;-72
2022/04/13 05:04:33;;;;;;;4.37;3.40;;;16.40;96.20;;;;;;4954053;29;20845;-72
2022/04/13 05:07:01;;;;;;;7.27;3.80;;;16.40;96.20;;;;;;4937339;29;20465;-72
2022/04/13 05:09:28;;;;;;;3.63;3.10;;;16.30;96.20;;;;;;4952490;28;20462;-72
2022/04/13 05:11:54;;;;;;;3.87;3.10;;;16.30;96.20;;;;;;4937313;29;20584;-72
2022/04/13 05:14:25;;;;;;;4.70;3.33;;;16.30;96.20;;;;;;4953058;29;20425;-72
2022/04/13 05:16:53;;;;;;;3.70;2.80;;;16.30;96.20;;;;;;4952876;29;20457;-72
2022/04/13 05:19:19;;;;;;;7.17;3.30;;;16.30;96.30;;;;;;4953214;29;20939;-72
2022/04/13 05:21:47;;;;;;;7.67;3.70;;;16.30;96.30;;;;;;4952891;29;20465;-72
2022/04/13 05:24:18;;;;;;;4.63;3.30;;;16.30;96.30;;;;;;4953015;29;20933;-72
2022/04/13 05:26:46;;;;;;;6.10;3.53;;;16.30;96.30;;;;;;4952749;29;20503;-72
2022/04/13 05:29:14;;;;;;;5.50;3.17;;;16.30;96.30;;;;;;4953871;28;20454;-71
2022/04/13 05:31:40;;;;;;;3.63;3.03;;;16.30;96.30;;;;;;4936985;29;20422;-72
2022/04/13 05:34:08;;;;;;;5.63;3.20;;;16.30;96.40;;;;;;4952452;29;20454;-72
2022/04/13 05:36:34;;;;;;;3.40;3.10;;;16.20;96.30;;;;;;4952573;29;20548;-72
2022/04/13 05:39:00;;;;;;;3.37;2.70;;;16.20;96.40;;;;;;4953763;28;20753;-70
2022/04/13 05:41:26;;;;;;;3.83;3.20;;;16.20;96.40;;;;;;4951656;29;20444;-71
2022/04/13 05:43:52;;;;;;;5.30;3.20;;;16.20;96.40;;;;;;4952038;29;20410;-70
2022/04/13 05:46:21;;;;;;;5.63;3.70;;;16.20;96.40;;;;;;4951813;29;20481;-70
2022/04/13 05:48:47;;;;;;;3.70;3.10;;;16.20;96.40;;;;;;4936711;29;20202;-70
2022/04/13 05:51:15;;;;;;;4.47;3.50;;;16.20;96.50;;;;;;4951749;29;20572;-71
2022/04/13 05:53:41;;;;;;;5.27;3.50;;;16.20;96.40;;;;;;4954023;28;20790;-70
2022/04/13 05:56:10;;;;;;;4.30;2.70;;;16.20;96.50;;;;;;4936426;29;20424;-71
2022/04/13 05:58:40;;;;;;;4.83;3.50;;;16.20;96.50;;;;;;4952548;29;20492;-70
2022/04/13 06:01:06;;;;;;;3.57;2.87;;;16.20;96.50;;;;;;4954974;28;20410;-70
2022/04/13 06:03:32;;;;;;;4.83;3.40;;;16.10;96.50;;;;;;4958966;29;20440;-70
2022/04/13 06:05:58;;;;;;;4.10;3.33;;;16.20;96.60;;;;;;4958828;29;20197;-70
2022/04/13 06:08:24;;;;;;;4.50;3.20;;;16.10;96.50;;;;;;4958807;29;20857;-70
2022/04/13 06:10:50;;;;;;;5.23;3.93;;;16.10;96.60;;;;;;4958608;28;20681;-71
2022/04/13 06:13:18;;;;;;;6.30;3.83;;;16.10;96.60;;;;;;4958867;28;20438;-71
2022/04/13 06:15:48;;;;;;;3.70;3.17;;;16.20;96.60;;;;;;4960013;28;20985;-70
2022/04/13 06:18:14;;;;;;;4.00;3.13;;;16.10;96.60;;;;;;4958797;29;20221;-70
2022/04/13 06:20:43;;;;;;;4.70;3.47;;;16.10;96.60;;;;;;4957897;29;20972;-71
2022/04/13 06:23:08;;;;;;;3.83;3.03;;;16.10;96.60;;;;;;4958669;29;20249;-70
2022/04/13 06:25:37;;;;;;;4.97;3.33;;;16.10;96.70;;;;;;4958589;29;20982;-70
2022/04/13 06:28:03;;;;;;;5.67;3.87;;;16.10;96.70;;;;;;4959761;28;20453;-70
2022/04/13 06:30:31;;;;;;;3.30;3.00;;;16.10;96.70;;;;;;4958550;29;20517;-70
2022/04/13 06:32:57;;;;;;;4.20;3.20;;;16.10;96.70;;;;;;4959983;28;20407;-70
2022/04/13 06:35:26;;;;;;;4.10;3.10;;;16.10;96.70;;;;;;4942863;29;20516;-70
2022/04/13 06:37:54;;;;;;;4.53;3.70;;;16.10;96.70;;;;;;4958715;28;20467;-70
2022/04/13 06:40:20;;;;;;;4.73;3.60;;;16.10;96.70;;;;;;4959446;28;20417;-70
2022/04/13 06:42:48;;;;;;;3.70;3.30;;;16.10;96.70;;;;;;4959769;28;20448;-70
2022/04/13 06:45:15;;;;;;;3.27;2.87;;;16.10;96.70;;;;;;4958332;29;20989;-70
2022/04/13 06:47:41;;;;;;;4.97;3.80;;;16.10;96.80;;;;;;4950637;28;20451;-70
2022/04/13 06:50:09;;;;;;;3.63;2.97;;;16.10;96.80;;;;;;4954598;28;20465;-71
2022/04/13 06:52:36;;;;;;;3.20;2.83;;;16.10;96.80;;;;;;4955478;29;20432;-71
2022/04/13 06:55:05;;;;;;;4.20;3.60;;;16.10;96.80;;;;;;4936258;29;20893;-70
2022/04/13 06:57:38;;;;;;;3.90;3.17;;;16.10;96.80;;;;;;4942246;29;20469;-70
2022/04/13 07:00:13;;;;;;;4.70;3.53;;;16.10;96.80;;;;;;4954411;29;20428;-71
2022/04/13 07:02:39;;;;;;;6.83;3.43;;;16.10;96.80;;;;;;4944001;28;20442;-71
2022/04/13 07:05:09;;;;;;;10.30;3.67;;;16.10;96.80;;;;;;4956875;28;20870;-70
2022/04/13 07:07:37;;;;;;;5.03;3.67;;;16.10;96.90;;;;;;4958945;28;20488;-71
2022/04/13 07:10:05;;;;;;;4.87;3.10;;;16.10;96.90;;;;;;4942660;29;20447;-70
2022/04/13 07:12:39;;;;;;;9.53;3.30;;;16.10;96.90;;;;;;4939766;29;20490;-70
2022/04/13 07:15:11;;;;;;;4.37;3.30;;;16.10;96.90;;;;;;4955192;29;20415;-70
2022/04/13 07:17:41;;;;;;;6.63;3.57;;;16.10;96.90;;;;;;4955966;28;20972;-70
2022/04/13 07:20:08;;;;;;;5.77;3.80;;;16.10;96.90;;;;;;4938701;29;20737;-71
2022/04/13 07:22:46;;;;;;;5.47;3.30;;;16.10;96.90;;;;;;4956079;28;20411;-71
2022/04/13 07:25:12;;;;;;;3.60;3.30;;;16.10;96.90;;;;;;4954833;29;20451;-70
2022/04/13 07:27:41;;;;;;;4.70;3.43;;;16.10;96.90;;;;;;4954566;29;20441;-70
2022/04/13 07:30:18;;;;;;;6.07;3.10;;;16.10;96.90;;;;;;4955994;28;20939;-70
2022/04/13 07:32:51;;;;;;;4.40;3.27;;;16.10;96.90;;;;;;4954761;29;20606;-70
2022/04/13 07:35:17;;;;;;;5.97;3.53;;;16.10;96.90;;;;;;4938784;29;20437;-70
2022/04/13 07:37:47;;;;;;;5.20;3.20;;;16.20;97.00;;;;;;4954812;29;20492;-70
2022/04/13 07:40:14;;;;;;;6.07;3.60;;;16.20;97.00;;;;;;4939187;29;20469;-70
2022/04/13 07:42:47;;;;;;;3.60;3.10;;;16.20;97.00;;;;;;4954658;29;20445;-70
2022/04/13 07:45:18;;;;;;;6.57;3.70;;;16.20;97.00;;;;;;4954701;29;20452;-71
2022/04/13 07:47:44;;;;;;;7.30;4.03;;;16.20;97.00;;;;;;4955459;28;20527;-70
2022/04/13 07:50:13;;;;;;;6.00;3.53;;;16.20;97.00;;;;;;4954699;29;20516;-70
2022/04/13 07:52:41;;;;;;;7.17;4.23;;;16.20;97.00;;;;;;4954194;29;20164;-70
2022/04/13 07:55:15;;;;;;;5.47;4.00;;;16.20;97.00;;;;;;4954410;29;20424;-71
2022/04/13 07:57:43;;;;;;;9.37;3.63;;;16.20;97.00;;;;;;4938188;29;20492;-71
2022/04/13 08:00:11;;;;;;;5.70;4.27;;;16.20;97.00;;;;;;4955475;28;20771;-71
2022/04/13 08:02:41;;;;;;;6.63;3.97;;;16.20;97.00;;;;;;4955472;28;20784;-71
2022/04/13 08:05:07;;;;;;;5.93;3.83;;;16.20;97.10;;;;;;4954175;29;20896;-70
2022/04/13 08:07:34;;;;;;;4.70;3.57;;;16.20;97.10;;;;;;4954154;28;20449;-71
2022/04/13 08:10:03;;;;;;;7.03;3.53;;;16.20;97.20;;;;;;4954956;28;20883;-71
2022/04/13 08:12:30;;;;;;;7.53;4.30;;;16.20;97.20;;;;;;4955188;28;20419;-70
2022/04/13 08:14:57;;;;;;;9.70;3.67;;;16.30;97.20;;;;;;4938104;29;20410;-70
2022/04/13 08:17:25;;;;;;;8.10;4.97;;;16.20;97.20;;;;;;4955152;28;20438;-70
2022/04/13 08:19:54;;;;;;;5.17;4.23;;;16.20;97.20;;;;;;4937976;29;20477;-70
2022/04/13 08:22:26;;;;;;;7.73;4.47;;;16.30;97.20;;;;;;4955105;28;20509;-70
2022/04/13 08:24:57;;;;;;;7.20;4.20;;;16.30;97.30;;;;;;4953495;28;20447;-70
2022/04/13 08:27:26;;;;;;;7.33;4.17;;;16.30;97.30;;;;;;4953891;29;20454;-70
2022/04/13 08:29:54;;;;;;;6.50;4.70;;;16.30;97.30;;;;;;4953854;29;20415;-70
2022/04/13 08:32:22;;;;;;;6.77;4.80;;;16.30;97.30;;;;;;4954926;28;20443;-70
2022/04/13 08:34:54;;;;;;;10.37;4.23;;;16.30;97.30;;;;;;4954462;28;20207;-70
2022/04/13 08:37:25;;;;;;;8.00;5.70;;;16.30;97.30;;;;;;4953914;29;20940;-70
2022/04/13 08:39:51;;;;;;;6.40;4.40;;;16.30;97.30;;;;;;4953177;29;20941;-70
2022/04/13 08:42:56;;;;;;;7.33;5.00;;;16.30;97.40;;;;;;4938059;29;20448;-70
2022/04/13 08:45:28;;;;;;;7.13;4.77;;;16.40;97.50;;;;;;4953100;29;20477;-70
2022/04/13 08:47:59;;;;;;;7.50;5.10;;;16.40;97.50;;;;;;4954616;28;20855;-70
2022/04/13 08:50:27;;;;;;;9.70;5.77;;;16.40;97.60;;;;;;4953458;29;20779;-70
2022/04/13 08:53:02;;;;;;;8.10;5.67;;;16.40;97.70;;;;;;4937522;29;20423;-71
2022/04/13 08:55:37;;;;;;;13.90;6.60;;;16.40;97.80;;;;;;4953137;29;20969;-70
2022/04/13 08:58:09;;;;;;;10.03;6.00;;;16.50;97.90;;;;;;4953320;29;20448;-70
2022/04/13 09:00:37;;;;;;;10.67;6.40;;;16.50;98.10;;;;;;4937243;29;20916;-70
2022/04/13 09:03:41;;;;;;;12.23;7.13;;;16.50;98.10;;;;;;4953337;29;20778;-70
2022/04/13 09:06:10;;;;;;;13.13;7.60;;;16.50;98.20;;;;;;4953874;28;20453;-70
2022/04/13 09:09:09;;;;;;;11.93;7.60;;;16.60;98.40;;;;;;4937113;29;20951;-70
2022/04/13 09:11:39;;;;;;;14.77;7.30;;;16.60;98.50;;;;;;4944629;29;20453;-70
2022/04/13 09:14:10;;;;;;;15.37;6.93;;;16.60;98.60;;;;;;4952918;28;20438;-70
2022/04/13 09:16:37;;;;;;;11.50;6.03;;;16.60;98.70;;;;;;4952748;29;20955;-71
2022/04/13 09:19:05;;;;;;;11.20;7.13;;;16.70;98.80;;;;;;4954159;28;20406;-70
2022/04/13 09:21:35;;;;;;;7.63;5.80;;;16.70;98.80;;;;;;4936717;29;20804;-70
2022/04/13 09:24:02;;;;;;;9.63;6.40;;;16.80;98.90;;;;;;4952450;29;20467;-70
2022/04/13 09:26:30;;;;;;;9.53;6.30;;;16.70;98.80;;;;;;4952638;29;20468;-70
2022/04/13 09:28:58;;;;;;;13.83;6.73;;;16.80;98.90;;;;;;4936592;29;20780;-71
2022/04/13 09:31:24;;;;;;;12.80;6.40;;;16.80;98.90;;;;;;4952478;29;20417;-70
2022/04/13 09:33:50;;;;;;;10.33;6.87;;;16.80;98.80;;;;;;4953984;28;20402;-70
2022/04/13 09:36:16;;;;;;;14.00;7.10;;;16.90;98.80;;;;;;4951939;28;20456;-70
2022/04/13 09:38:42;;;;;;;14.97;7.50;;;16.90;98.80;;;;;;4953878;28;20418;-70
2022/04/13 09:41:13;;;;;;;11.33;6.90;;;16.90;98.80;;;;;;4953493;28;20464;-71
2022/04/13 09:43:55;;;;;;;11.10;6.60;;;17.00;98.90;;;;;;4951976;29;20459;-71
2022/04/13 09:46:28;;;;;;;11.60;6.30;;;17.00;99.00;;;;;;4952418;29;20488;-70
2022/04/13 09:49:17;;;;;;;12.70;7.00;;;17.00;99.00;;;;;;4952720;29;20495;-70
2022/04/13 09:51:50;;;;;;;12.30;7.40;;;17.10;99.10;;;;;;4951765;29;20497;-71
2022/04/13 09:54:25;;;;;;;12.10;6.73;;;17.10;99.10;;;;;;4936873;29;20425;-70
2022/04/13 09:56:56;;;;;;;9.63;7.13;;;17.10;99.20;;;;;;4953617;28;20459;-70
2022/04/13 09:59:28;;;;;;;10.73;6.30;;;17.10;99.30;;;;;;4936990;29;20442;-71
2022/04/13 10:01:54;;;;;;;11.67;6.87;;;17.20;99.40;;;;;;4952378;28;20462;-70
2022/04/13 10:04:38;;;;;;;9.00;6.67;;;17.20;99.40;;;;;;4936346;29;20421;-71
2022/04/13 10:07:17;;;;;;;11.90;6.73;;;17.20;99.50;;;;;;4936408;29;20813;-71
2022/04/13 10:09:46;;;;;;;13.03;6.47;;;17.20;99.60;;;;;;4952329;29;20911;-70
2022/04/13 10:12:14;;;;;;;17.00;6.63;;;17.30;99.70;;;;;;4953338;28;20941;-70
2022/04/13 10:14:43;;;;;;;12.60;6.13;;;17.30;99.80;;;;;;4953021;28;20488;-71
2022/04/13 10:17:13;;;;;;;9.27;5.33;;;17.30;99.90;;;;;;4932663;29;20463;-70
2022/04/13 10:19:42;;;;;;;11.10;6.60;;;17.30;99.90;;;;;;4933100;29;20444;-70
2022/04/13 10:22:10;;;;;;;11.87;6.87;;;17.40;99.90;;;;;;4933181;29;20474;-71
2022/04/13 10:24:37;;;;;;;8.87;5.43;;;17.40;99.90;;;;;;4934209;29;20407;-71
2022/04/13 10:27:07;;;;;;;10.33;6.10;;;17.40;99.90;;;;;;4916812;29;20454;-70
2022/04/13 10:29:35;;;;;;;11.20;6.50;;;17.50;99.90;;;;;;4938691;29;20434;-71
2022/04/13 10:32:15;;;;;;;8.03;5.07;;;17.50;99.90;;;;;;4950553;29;20414;-71
2022/04/13 10:34:45;;;;;;;6.37;4.70;;;17.50;99.90;;;;;;4950578;29;21002;-71
2022/04/13 10:37:16;;;;;;;12.37;4.60;;;17.60;99.90;;;;;;4950354;29;20987;-71
2022/04/13 10:39:45;;;;;;;14.70;5.77;;;17.60;99.90;;;;;;4950517;28;20434;-71
2022/04/13 10:42:17;;;;;;;8.20;4.73;;;17.60;99.90;;;;;;4951805;28;20473;-71
2022/04/13 10:44:53;;;;;;;8.40;5.00;;;17.70;99.90;;;;;;4951749;29;20434;-71
2022/04/13 10:47:30;;;;;;;9.17;5.40;;;17.70;99.90;;;;;;4950887;28;20548;-71
2022/04/13 10:50:03;;;;;;;11.03;4.97;;;17.80;99.90;;;;;;4953665;29;20811;-71
2022/04/13 10:53:00;;;;;;;11.00;4.83;;;17.80;99.90;;;;;;4954225;28;20434;-71
2022/04/13 10:55:27;;;;;;;7.90;5.50;;;17.80;99.90;;;;;;4951126;29;20464;-70
2022/04/13 10:57:59;;;;;;;7.50;5.00;;;17.90;99.90;;;;;;4929816;29;20474;-71
2022/04/13 11:00:26;;;;;;;8.90;5.43;;;17.90;99.90;;;;;;4945339;29;20448;-71
2022/04/13 11:03:11;;;;;;;11.60;5.20;;;17.90;99.90;;;;;;4951727;29;20430;-71
2022/04/13 11:05:42;;;;;;;7.80;4.50;;;18.00;99.90;;;;;;4954307;28;20481;-71
2022/04/13 11:08:14;;;;;;;11.87;5.30;;;18.00;99.90;;;;;;4929224;29;20468;-70
2022/04/13 11:10:47;;;;;;;10.03;5.53;;;18.10;99.90;;;;;;4954140;29;20871;-71
2022/04/13 11:13:19;;;;;;;7.73;4.80;;;18.10;99.90;;;;;;4936211;29;20470;-71
2022/04/13 11:15:52;;;;;;;7.33;4.47;;;18.10;99.80;;;;;;4936191;29;20798;-71
2022/04/13 11:18:21;;;;;;;9.40;5.20;;;18.10;99.80;;;;;;4951402;29;20457;-71
2022/04/13 11:21:09;;;;;;;7.13;4.20;;;18.20;99.90;;;;;;4951477;29;21074;-71
2022/04/13 11:23:50;;;;;;;8.40;4.80;;;18.20;99.90;;;;;;4949985;29;20414;-71
2022/04/13 11:26:26;;;;;;;6.17;3.80;;;18.20;99.80;;;;;;4954189;29;20485;-71
2022/04/13 11:29:15;;;;;;;5.93;3.80;;;18.30;99.80;;;;;;4954704;28;20418;-71
2022/04/13 11:31:59;;;;;;;9.23;4.73;;;18.30;99.80;;;;;;4952610;29;20507;-71
2022/04/13 11:34:40;;;;;;;8.13;4.60;;;18.30;99.80;;;;;;4949992;29;20510;-71
2022/04/13 11:37:24;;;;;;;6.40;3.97;;;18.30;99.80;;;;;;4935932;29;20471;-70
2022/04/13 11:39:59;;;;;;;7.57;4.27;;;18.40;99.90;;;;;;4934731;29;20430;-71
2022/04/13 11:42:28;;;;;;;8.00;4.57;;;18.40;99.90;;;;;;4953545;28;20454;-71
2022/04/13 11:45:11;;;;;;;12.13;4.70;;;18.50;99.90;;;;;;4954618;28;20452;-71
2022/04/13 11:47:43;;;;;;;6.17;4.17;;;18.50;99.90;;;;;;4953501;29;20450;-71
2022/04/13 11:50:12;;;;;;;8.87;4.10;;;18.50;99.90;;;;;;4946170;28;20482;-71
2022/04/13 11:53:01;;;;;;;8.43;4.23;;;18.60;99.90;;;;;;4952078;29;20449;-71
2022/04/13 11:55:43;;;;;;;9.00;3.90;;;18.50;99.80;;;;;;4952333;29;20431;-71
2022/04/13 11:58:19;;;;;;;7.27;3.87;;;18.60;99.90;;;;;;4952803;28;20453;-71
2022/04/13 12:00:49;;;;;;;4.07;3.53;;;18.60;99.80;;;;;;4953364;28;20486;-72
2022/04/13 12:03:23;;;;;;;6.73;4.40;;;18.70;99.80;;;;;;4950068;29;20466;-71
2022/04/13 12:06:14;;;;;;;7.80;4.10;;;18.60;99.60;;;;;;4948542;29;20492;-71
2022/04/13 12:08:51;;;;;;;4.70;3.13;;;18.70;99.60;;;;;;4945671;29;20453;-71
2022/04/13 12:11:19;;;;;;;5.27;3.30;;;18.70;99.60;;;;;;4946668;29;20435;-71
2022/04/13 12:13:54;;;;;;;5.70;3.70;;;18.70;99.50;;;;;;4934282;29;20824;-71
2022/04/13 12:16:22;;;;;;;6.90;3.80;;;18.70;99.50;;;;;;4953374;28;20450;-71
2022/04/13 12:18:54;;;;;;;7.60;3.80;;;18.80;99.50;;;;;;4937169;29;20442;-71
2022/04/13 12:21:24;;;;;;;6.87;3.80;;;18.80;99.50;;;;;;4952919;28;20450;-71
2022/04/13 12:23:56;;;;;;;6.07;3.97;;;18.80;99.40;;;;;;4943787;29;20454;-71
2022/04/13 12:26:31;;;;;;;5.67;3.40;;;18.80;99.40;;;;;;4951347;29;20625;-71
2022/04/13 12:28:58;;;;;;;5.77;3.47;;;18.90;99.40;;;;;;4953946;28;20463;-71
2022/04/13 12:31:27;;;;;;;7.70;3.50;;;18.90;99.30;;;;;;4953044;28;20466;-71
2022/04/13 12:34:04;;;;;;;7.80;3.90;;;18.90;99.30;;;;;;4953144;29;20454;-71
2022/04/13 12:36:30;;;;;;;7.30;3.63;;;19.00;99.40;;;;;;4953161;28;20497;-71
2022/04/13 12:38:57;;;;;;;6.90;4.67;;;19.00;99.40;;;;;;4952197;29;20423;-71
2022/04/13 12:41:30;;;;;;;6.60;3.43;;;19.00;99.30;;;;;;4945647;29;20754;-71
2022/04/13 12:44:01;;;;;;;7.30;3.70;;;19.00;99.60;;;;;;4953094;28;20554;-71
2022/04/13 12:46:32;;;;;;;9.50;3.33;;;19.10;99.30;;;;;;4945303;28;20476;-70
2022/04/13 12:49:04;;;;;;;6.30;2.63;;;19.10;99.30;;;;;;4951665;29;20506;-71
2022/04/13 12:51:35;;;;;;;6.13;3.50;;;19.10;99.30;;;;;;4952599;28;20987;-71
2022/04/13 12:54:05;;;;;;;4.73;3.27;;;19.10;99.20;;;;;;4953504;28;20937;-71
2022/04/13 12:56:39;;;;;;;7.13;3.13;;;19.20;99.30;;;;;;4943713;29;20470;-71
2022/04/13 12:59:06;;;;;;;9.13;3.30;;;19.20;99.30;;;;;;4952278;29;20453;-71